sensor_id;sensor_type;location;lat;lon;timestamp;P1;durP1;ratioP1;P2;durP2;ratioP2
63606;SDS011;71992;52.478;-1.918;2023-08-06T00:01:08;1.05;;;0.70;;
63606;SDS011;71992;52.478;-1.918;2023-08-06T00:03:39;1.58;;;0.93;;
63606;SDS011;71992;52.478;-1.918;2023-08-06T00:06:10;1.58;;;0.98;;
63606;SDS011;71992;52.478;-1.918;2023-08-06T00:08:41;2.03;;;1.20;;
63606;SDS011;71992;52.478;-1.918;2023-08-06T00:11:12;1.67;;;1.00;;
63606;SDS011;71992;52.478;-1.918;2023-08-06T00:13:45;1.52;;;0.95;;
63606;SDS011;71992;52.478;-1.918;2023-08-06T00:16:16;2.35;;;0.90;;
63606;SDS011;71992;52.478;-1.918;2023-08-06T00:18:47;1.55;;;0.88;;
63606;SDS011;71992;52.478;-1.918;2023-08-06T00:21:18;1.30;;;0.73;;
63606;SDS011;71992;52.478;-1.918;2023-08-06T00:23:49;1.92;;;1.10;;
63606;SDS011;71992;52.478;-1.918;2023-08-06T00:26:19;2.90;;;1.10;;
63606;SDS011;71992;52.478;-1.918;2023-08-06T00:28:53;2.53;;;0.90;;
63606;SDS011;71992;52.478;-1.918;2023-08-06T00:31:24;2.65;;;1.27;;
63606;SDS011;71992;52.478;-1.918;2023-08-06T00:33:55;2.42;;;1.10;;
63606;SDS011;71992;52.478;-1.918;2023-08-06T00:36:26;2.00;;;1.05;;
63606;SDS011;71992;52.478;-1.918;2023-08-06T00:38:57;2.08;;;1.05;;
63606;SDS011;71992;52.478;-1.918;2023-08-06T00:41:27;1.73;;;0.90;;
63606;SDS011;71992;52.478;-1.918;2023-08-06T00:44:01;2.00;;;0.95;;
63606;SDS011;71992;52.478;-1.918;2023-08-06T00:46:32;1.30;;;1.00;;
63606;SDS011;71992;52.478;-1.918;2023-08-06T00:49:04;2.53;;;0.90;;
63606;SDS011;71992;52.478;-1.918;2023-08-06T00:51:35;1.38;;;0.90;;
63606;SDS011;71992;52.478;-1.918;2023-08-06T00:54:06;2.40;;;1.00;;
63606;SDS011;71992;52.478;-1.918;2023-08-06T00:56:37;2.58;;;1.30;;
63606;SDS011;71992;52.478;-1.918;2023-08-06T00:59:11;2.05;;;1.00;;
63606;SDS011;71992;52.478;-1.918;2023-08-06T01:01:42;3.42;;;1.10;;
63606;SDS011;71992;52.478;-1.918;2023-08-06T01:04:15;2.80;;;1.25;;
63606;SDS011;71992;52.478;-1.918;2023-08-06T01:06:48;2.05;;;1.08;;
63606;SDS011;71992;52.478;-1.918;2023-08-06T01:09:29;2.10;;;1.10;;
63606;SDS011;71992;52.478;-1.918;2023-08-06T01:12:08;2.60;;;1.05;;
63606;SDS011;71992;52.478;-1.918;2023-08-06T01:14:51;1.92;;;1.00;;
63606;SDS011;71992;52.478;-1.918;2023-08-06T01:17:29;2.42;;;1.38;;
63606;SDS011;71992;52.478;-1.918;2023-08-06T01:20:01;3.45;;;0.90;;
63606;SDS011;71992;52.478;-1.918;2023-08-06T01:22:34;1.70;;;1.00;;
63606;SDS011;71992;52.478;-1.918;2023-08-06T01:25:05;3.38;;;0.88;;
63606;SDS011;71992;52.478;-1.918;2023-08-06T01:27:38;1.98;;;1.05;;
63606;SDS011;71992;52.478;-1.918;2023-08-06T01:30:16;1.77;;;0.93;;
63606;SDS011;71992;52.478;-1.918;2023-08-06T01:32:50;4.65;;;1.10;;
63606;SDS011;71992;52.478;-1.918;2023-08-06T01:35:29;2.97;;;0.90;;
63606;SDS011;71992;52.478;-1.918;2023-08-06T01:38:03;1.83;;;1.07;;
63606;SDS011;71992;52.478;-1.918;2023-08-06T01:40:34;3.28;;;1.17;;
63606;SDS011;71992;52.478;-1.918;2023-08-06T01:43:05;2.30;;;0.90;;
63606;SDS011;71992;52.478;-1.918;2023-08-06T01:45:36;1.75;;;1.08;;
63606;SDS011;71992;52.478;-1.918;2023-08-06T01:48:06;1.25;;;0.90;;
63606;SDS011;71992;52.478;-1.918;2023-08-06T01:50:37;2.75;;;0.93;;
63606;SDS011;71992;52.478;-1.918;2023-08-06T01:53:11;2.08;;;0.85;;
63606;SDS011;71992;52.478;-1.918;2023-08-06T01:55:42;1.95;;;0.98;;
63606;SDS011;71992;52.478;-1.918;2023-08-06T01:58:17;2.00;;;0.90;;
63606;SDS011;71992;52.478;-1.918;2023-08-06T02:00:48;1.88;;;0.95;;
63606;SDS011;71992;52.478;-1.918;2023-08-06T02:03:19;2.22;;;1.45;;
63606;SDS011;71992;52.478;-1.918;2023-08-06T02:05:50;1.60;;;0.77;;
63606;SDS011;71992;52.478;-1.918;2023-08-06T02:08:23;2.22;;;0.90;;
63606;SDS011;71992;52.478;-1.918;2023-08-06T02:10:54;1.75;;;0.80;;
63606;SDS011;71992;52.478;-1.918;2023-08-06T02:13:25;2.20;;;1.00;;
63606;SDS011;71992;52.478;-1.918;2023-08-06T02:15:56;2.58;;;1.08;;
63606;SDS011;71992;52.478;-1.918;2023-08-06T02:18:27;1.20;;;0.80;;
63606;SDS011;71992;52.478;-1.918;2023-08-06T02:20:58;1.83;;;0.98;;
63606;SDS011;71992;52.478;-1.918;2023-08-06T02:23:33;1.30;;;0.85;;
63606;SDS011;71992;52.478;-1.918;2023-08-06T02:26:04;1.52;;;0.90;;
63606;SDS011;71992;52.478;-1.918;2023-08-06T02:28:35;1.88;;;0.73;;
63606;SDS011;71992;52.478;-1.918;2023-08-06T02:31:05;1.55;;;0.82;;
63606;SDS011;71992;52.478;-1.918;2023-08-06T02:33:39;2.65;;;0.93;;
63606;SDS011;71992;52.478;-1.918;2023-08-06T02:36:10;1.88;;;1.23;;
63606;SDS011;71992;52.478;-1.918;2023-08-06T02:38:43;1.60;;;0.98;;
63606;SDS011;71992;52.478;-1.918;2023-08-06T02:41:14;1.30;;;0.60;;
63606;SDS011;71992;52.478;-1.918;2023-08-06T02:43:45;1.80;;;0.82;;
63606;SDS011;71992;52.478;-1.918;2023-08-06T02:46:16;1.38;;;0.77;;
63606;SDS011;71992;52.478;-1.918;2023-08-06T02:48:47;2.45;;;0.88;;
63606;SDS011;71992;52.478;-1.918;2023-08-06T02:51:18;1.70;;;0.90;;
63606;SDS011;71992;52.478;-1.918;2023-08-06T02:53:51;2.13;;;0.95;;
63606;SDS011;71992;52.478;-1.918;2023-08-06T02:56:23;2.33;;;1.10;;
63606;SDS011;71992;52.478;-1.918;2023-08-06T02:59:22;1.55;;;0.95;;
63606;SDS011;71992;52.478;-1.918;2023-08-06T03:02:05;1.75;;;0.80;;
63606;SDS011;71992;52.478;-1.918;2023-08-06T03:04:55;2.90;;;0.77;;
63606;SDS011;71992;52.478;-1.918;2023-08-06T03:07:30;3.85;;;0.88;;
63606;SDS011;71992;52.478;-1.918;2023-08-06T03:10:11;1.98;;;0.80;;
63606;SDS011;71992;52.478;-1.918;2023-08-06T03:12:42;1.25;;;0.73;;
63606;SDS011;71992;52.478;-1.918;2023-08-06T03:15:14;2.13;;;0.90;;
63606;SDS011;71992;52.478;-1.918;2023-08-06T03:17:47;1.48;;;0.70;;
63606;SDS011;71992;52.478;-1.918;2023-08-06T03:20:21;1.60;;;0.90;;
63606;SDS011;71992;52.478;-1.918;2023-08-06T03:22:52;1.80;;;0.95;;
63606;SDS011;71992;52.478;-1.918;2023-08-06T03:25:26;1.88;;;1.30;;
63606;SDS011;71992;52.478;-1.918;2023-08-06T03:27:57;1.65;;;1.25;;
63606;SDS011;71992;52.478;-1.918;2023-08-06T03:30:28;1.65;;;1.00;;
63606;SDS011;71992;52.478;-1.918;2023-08-06T03:32:59;2.40;;;1.00;;
63606;SDS011;71992;52.478;-1.918;2023-08-06T03:35:30;1.13;;;0.68;;
63606;SDS011;71992;52.478;-1.918;2023-08-06T03:38:02;2.20;;;1.10;;
63606;SDS011;71992;52.478;-1.918;2023-08-06T03:40:37;0.98;;;0.68;;
63606;SDS011;71992;52.478;-1.918;2023-08-06T03:43:09;0.90;;;0.68;;
63606;SDS011;71992;52.478;-1.918;2023-08-06T03:45:41;1.33;;;0.70;;
63606;SDS011;71992;52.478;-1.918;2023-08-06T03:48:12;2.97;;;0.85;;
63606;SDS011;71992;52.478;-1.918;2023-08-06T03:50:42;1.58;;;0.98;;
63606;SDS011;71992;52.478;-1.918;2023-08-06T03:53:15;1.67;;;0.90;;
63606;SDS011;71992;52.478;-1.918;2023-08-06T03:55:49;1.77;;;0.80;;
63606;SDS011;71992;52.478;-1.918;2023-08-06T03:58:20;0.75;;;0.50;;
63606;SDS011;71992;52.478;-1.918;2023-08-06T04:00:57;2.55;;;1.00;;
63606;SDS011;71992;52.478;-1.918;2023-08-06T04:03:32;0.82;;;0.65;;
63606;SDS011;71992;52.478;-1.918;2023-08-06T04:06:04;1.98;;;1.00;;
63606;SDS011;71992;52.478;-1.918;2023-08-06T04:08:34;1.42;;;0.77;;
63606;SDS011;71992;52.478;-1.918;2023-08-06T04:11:08;2.03;;;0.90;;
63606;SDS011;71992;52.478;-1.918;2023-08-06T04:13:43;1.33;;;0.77;;
63606;SDS011;71992;52.478;-1.918;2023-08-06T04:16:14;1.73;;;1.02;;
63606;SDS011;71992;52.478;-1.918;2023-08-06T04:18:45;1.67;;;0.77;;
63606;SDS011;71992;52.478;-1.918;2023-08-06T04:21:17;2.20;;;0.90;;
63606;SDS011;71992;52.478;-1.918;2023-08-06T04:23:50;1.20;;;0.60;;
63606;SDS011;71992;52.478;-1.918;2023-08-06T04:26:24;1.27;;;0.80;;
63606;SDS011;71992;52.478;-1.918;2023-08-06T04:28:57;1.45;;;0.77;;
63606;SDS011;71992;52.478;-1.918;2023-08-06T04:34:01;1.30;;;0.60;;
63606;SDS011;71992;52.478;-1.918;2023-08-06T04:36:33;1.33;;;0.50;;
63606;SDS011;71992;52.478;-1.918;2023-08-06T04:39:04;1.02;;;0.60;;
63606;SDS011;71992;52.478;-1.918;2023-08-06T04:41:37;1.27;;;0.85;;
63606;SDS011;71992;52.478;-1.918;2023-08-06T04:44:08;2.63;;;0.80;;
63606;SDS011;71992;52.478;-1.918;2023-08-06T04:46:40;2.47;;;0.88;;
63606;SDS011;71992;52.478;-1.918;2023-08-06T04:49:11;1.77;;;0.98;;
63606;SDS011;71992;52.478;-1.918;2023-08-06T04:51:41;1.55;;;0.60;;
63606;SDS011;71992;52.478;-1.918;2023-08-06T04:54:14;1.67;;;0.80;;
63606;SDS011;71992;52.478;-1.918;2023-08-06T04:56:48;1.45;;;0.70;;
63606;SDS011;71992;52.478;-1.918;2023-08-06T04:59:19;2.00;;;0.82;;
63606;SDS011;71992;52.478;-1.918;2023-08-06T05:01:50;0.90;;;0.60;;
63606;SDS011;71992;52.478;-1.918;2023-08-06T05:04:21;0.85;;;0.60;;
63606;SDS011;71992;52.478;-1.918;2023-08-06T05:06:52;2.15;;;0.73;;
63606;SDS011;71992;52.478;-1.918;2023-08-06T05:09:23;1.50;;;0.68;;
63606;SDS011;71992;52.478;-1.918;2023-08-06T05:11:56;1.02;;;0.65;;
63606;SDS011;71992;52.478;-1.918;2023-08-06T05:14:27;1.15;;;0.60;;
63606;SDS011;71992;52.478;-1.918;2023-08-06T05:16:58;2.28;;;0.77;;
63606;SDS011;71992;52.478;-1.918;2023-08-06T05:19:29;1.77;;;0.60;;
63606;SDS011;71992;52.478;-1.918;2023-08-06T05:22:00;1.02;;;0.70;;
63606;SDS011;71992;52.478;-1.918;2023-08-06T05:24:31;2.58;;;0.73;;
63606;SDS011;71992;52.478;-1.918;2023-08-06T05:27:05;2.05;;;0.60;;
63606;SDS011;71992;52.478;-1.918;2023-08-06T05:29:36;0.90;;;0.60;;
63606;SDS011;71992;52.478;-1.918;2023-08-06T05:32:07;1.50;;;0.73;;
63606;SDS011;71992;52.478;-1.918;2023-08-06T05:34:37;1.30;;;0.85;;
63606;SDS011;71992;52.478;-1.918;2023-08-06T05:37:08;2.17;;;1.00;;
63606;SDS011;71992;52.478;-1.918;2023-08-06T05:39:39;1.35;;;0.75;;
63606;SDS011;71992;52.478;-1.918;2023-08-06T05:42:13;1.88;;;0.70;;
63606;SDS011;71992;52.478;-1.918;2023-08-06T05:44:43;0.82;;;0.70;;
63606;SDS011;71992;52.478;-1.918;2023-08-06T05:47:14;0.90;;;0.75;;
63606;SDS011;71992;52.478;-1.918;2023-08-06T05:49:47;2.15;;;1.42;;
63606;SDS011;71992;52.478;-1.918;2023-08-06T05:52:17;1.77;;;0.70;;
63606;SDS011;71992;52.478;-1.918;2023-08-06T05:54:48;2.25;;;0.70;;
63606;SDS011;71992;52.478;-1.918;2023-08-06T05:57:22;3.28;;;0.90;;
63606;SDS011;71992;52.478;-1.918;2023-08-06T05:59:53;1.10;;;0.70;;
63606;SDS011;71992;52.478;-1.918;2023-08-06T06:02:24;1.25;;;0.77;;
63606;SDS011;71992;52.478;-1.918;2023-08-06T06:04:55;1.33;;;0.88;;
63606;SDS011;71992;52.478;-1.918;2023-08-06T06:07:26;1.95;;;0.70;;
63606;SDS011;71992;52.478;-1.918;2023-08-06T06:09:57;1.45;;;0.73;;
63606;SDS011;71992;52.478;-1.918;2023-08-06T06:12:30;1.35;;;0.82;;
63606;SDS011;71992;52.478;-1.918;2023-08-06T06:15:01;0.90;;;0.60;;
63606;SDS011;71992;52.478;-1.918;2023-08-06T06:17:33;1.73;;;0.55;;
63606;SDS011;71992;52.478;-1.918;2023-08-06T06:20:04;2.30;;;0.77;;
63606;SDS011;71992;52.478;-1.918;2023-08-06T06:22:36;2.53;;;0.90;;
63606;SDS011;71992;52.478;-1.918;2023-08-06T06:25:07;1.27;;;0.60;;
63606;SDS011;71992;52.478;-1.918;2023-08-06T06:27:41;1.88;;;0.68;;
63606;SDS011;71992;52.478;-1.918;2023-08-06T06:30:11;2.03;;;0.60;;
63606;SDS011;71992;52.478;-1.918;2023-08-06T06:32:42;1.00;;;0.70;;
63606;SDS011;71992;52.478;-1.918;2023-08-06T06:35:13;1.60;;;0.60;;
63606;SDS011;71992;52.478;-1.918;2023-08-06T06:37:44;1.95;;;0.50;;
63606;SDS011;71992;52.478;-1.918;2023-08-06T06:40:15;1.10;;;0.50;;
63606;SDS011;71992;52.478;-1.918;2023-08-06T06:42:49;1.52;;;0.50;;
63606;SDS011;71992;52.478;-1.918;2023-08-06T06:45:20;1.10;;;0.60;;
63606;SDS011;71992;52.478;-1.918;2023-08-06T06:47:51;0.88;;;0.43;;
63606;SDS011;71992;52.478;-1.918;2023-08-06T06:50:22;1.52;;;0.60;;
63606;SDS011;71992;52.478;-1.918;2023-08-06T06:52:53;1.55;;;0.77;;
63606;SDS011;71992;52.478;-1.918;2023-08-06T06:55:24;0.90;;;0.50;;
63606;SDS011;71992;52.478;-1.918;2023-08-06T06:57:58;0.85;;;0.40;;
63606;SDS011;71992;52.478;-1.918;2023-08-06T07:00:28;1.70;;;0.50;;
63606;SDS011;71992;52.478;-1.918;2023-08-06T07:02:59;0.50;;;0.40;;
63606;SDS011;71992;52.478;-1.918;2023-08-06T07:05:30;0.75;;;0.40;;
63606;SDS011;71992;52.478;-1.918;2023-08-06T07:08:01;2.85;;;0.60;;
63606;SDS011;71992;52.478;-1.918;2023-08-06T07:10:32;0.30;;;0.20;;
63606;SDS011;71992;52.478;-1.918;2023-08-06T07:13:05;1.48;;;0.40;;
63606;SDS011;71992;52.478;-1.918;2023-08-06T07:15:36;0.30;;;0.25;;
63606;SDS011;71992;52.478;-1.918;2023-08-06T07:18:09;0.75;;;0.50;;
63606;SDS011;71992;52.478;-1.918;2023-08-06T07:20:40;0.50;;;0.30;;
63606;SDS011;71992;52.478;-1.918;2023-08-06T07:23:11;1.40;;;0.50;;
63606;SDS011;71992;52.478;-1.918;2023-08-06T07:25:41;0.90;;;0.45;;
63606;SDS011;71992;52.478;-1.918;2023-08-06T07:28:15;1.77;;;0.60;;
63606;SDS011;71992;52.478;-1.918;2023-08-06T07:30:47;2.42;;;0.98;;
63606;SDS011;71992;52.478;-1.918;2023-08-06T07:33:17;1.73;;;0.80;;
63606;SDS011;71992;52.478;-1.918;2023-08-06T07:35:48;0.65;;;0.40;;
63606;SDS011;71992;52.478;-1.918;2023-08-06T07:38:19;1.33;;;0.60;;
63606;SDS011;71992;52.478;-1.918;2023-08-06T07:40:50;2.15;;;0.70;;
63606;SDS011;71992;52.478;-1.918;2023-08-06T07:43:24;0.95;;;0.55;;
63606;SDS011;71992;52.478;-1.918;2023-08-06T07:45:57;0.40;;;0.40;;
63606;SDS011;71992;52.478;-1.918;2023-08-06T07:48:28;0.95;;;0.57;;
63606;SDS011;71992;52.478;-1.918;2023-08-06T07:50:59;1.27;;;0.50;;
63606;SDS011;71992;52.478;-1.918;2023-08-06T07:53:30;1.10;;;0.60;;
63606;SDS011;71992;52.478;-1.918;2023-08-06T07:56:01;1.55;;;0.65;;
63606;SDS011;71992;52.478;-1.918;2023-08-06T07:58:34;1.17;;;0.68;;
63606;SDS011;71992;52.478;-1.918;2023-08-06T08:01:06;1.48;;;0.88;;
63606;SDS011;71992;52.478;-1.918;2023-08-06T08:03:37;1.42;;;0.80;;
63606;SDS011;71992;52.478;-1.918;2023-08-06T08:06:08;3.47;;;0.70;;
63606;SDS011;71992;52.478;-1.918;2023-08-06T08:08:39;2.10;;;0.70;;
63606;SDS011;71992;52.478;-1.918;2023-08-06T08:11:10;1.13;;;0.82;;
63606;SDS011;71992;52.478;-1.918;2023-08-06T08:13:44;1.00;;;0.52;;
63606;SDS011;71992;52.478;-1.918;2023-08-06T08:16:15;1.85;;;0.63;;
63606;SDS011;71992;52.478;-1.918;2023-08-06T08:18:46;1.42;;;0.63;;
63606;SDS011;71992;52.478;-1.918;2023-08-06T08:21:17;0.90;;;0.50;;
63606;SDS011;71992;52.478;-1.918;2023-08-06T08:23:48;1.20;;;0.60;;
63606;SDS011;71992;52.478;-1.918;2023-08-06T08:26:18;1.27;;;0.50;;
63606;SDS011;71992;52.478;-1.918;2023-08-06T08:28:52;1.73;;;0.60;;
63606;SDS011;71992;52.478;-1.918;2023-08-06T08:31:23;1.52;;;0.60;;
63606;SDS011;71992;52.478;-1.918;2023-08-06T08:33:55;1.10;;;0.60;;
63606;SDS011;71992;52.478;-1.918;2023-08-06T08:36:28;1.83;;;0.80;;
63606;SDS011;71992;52.478;-1.918;2023-08-06T08:38:59;1.90;;;0.73;;
63606;SDS011;71992;52.478;-1.918;2023-08-06T08:41:30;0.75;;;0.40;;
63606;SDS011;71992;52.478;-1.918;2023-08-06T08:44:04;1.40;;;0.90;;
63606;SDS011;71992;52.478;-1.918;2023-08-06T08:46:37;0.93;;;0.50;;
63606;SDS011;71992;52.478;-1.918;2023-08-06T08:49:10;0.80;;;0.60;;
63606;SDS011;71992;52.478;-1.918;2023-08-06T08:51:41;1.65;;;0.60;;
63606;SDS011;71992;52.478;-1.918;2023-08-06T08:54:15;3.45;;;0.70;;
63606;SDS011;71992;52.478;-1.918;2023-08-06T08:56:48;1.85;;;0.60;;
63606;SDS011;71992;52.478;-1.918;2023-08-06T08:59:22;0.95;;;0.50;;
63606;SDS011;71992;52.478;-1.918;2023-08-06T09:01:53;0.60;;;0.47;;
63606;SDS011;71992;52.478;-1.918;2023-08-06T09:04:24;1.63;;;0.68;;
63606;SDS011;71992;52.478;-1.918;2023-08-06T09:06:59;1.33;;;0.55;;
63606;SDS011;71992;52.478;-1.918;2023-08-06T09:09:31;1.25;;;0.60;;
63606;SDS011;71992;52.478;-1.918;2023-08-06T09:12:06;0.80;;;0.40;;
63606;SDS011;71992;52.478;-1.918;2023-08-06T09:14:45;0.93;;;0.50;;
63606;SDS011;71992;52.478;-1.918;2023-08-06T09:17:16;1.05;;;0.50;;
63606;SDS011;71992;52.478;-1.918;2023-08-06T09:19:48;1.80;;;0.80;;
63606;SDS011;71992;52.478;-1.918;2023-08-06T09:22:18;0.88;;;0.50;;
63606;SDS011;71992;52.478;-1.918;2023-08-06T09:24:49;1.83;;;0.45;;
63606;SDS011;71992;52.478;-1.918;2023-08-06T09:27:20;1.20;;;0.70;;
63606;SDS011;71992;52.478;-1.918;2023-08-06T09:29:55;2.70;;;0.80;;
63606;SDS011;71992;52.478;-1.918;2023-08-06T09:32:26;1.52;;;0.60;;
63606;SDS011;71992;52.478;-1.918;2023-08-06T09:34:57;0.90;;;0.50;;
63606;SDS011;71992;52.478;-1.918;2023-08-06T09:37:30;0.65;;;0.50;;
63606;SDS011;71992;52.478;-1.918;2023-08-06T09:40:20;2.28;;;0.60;;
63606;SDS011;71992;52.478;-1.918;2023-08-06T09:42:55;1.30;;;0.80;;
63606;SDS011;71992;52.478;-1.918;2023-08-06T09:45:30;1.23;;;0.60;;
63606;SDS011;71992;52.478;-1.918;2023-08-06T09:48:03;1.33;;;0.70;;
63606;SDS011;71992;52.478;-1.918;2023-08-06T09:50:35;2.13;;;0.57;;
63606;SDS011;71992;52.478;-1.918;2023-08-06T09:53:08;1.02;;;0.60;;
63606;SDS011;71992;52.478;-1.918;2023-08-06T09:55:41;0.70;;;0.50;;
63606;SDS011;71992;52.478;-1.918;2023-08-06T09:58:12;1.48;;;0.60;;
63606;SDS011;71992;52.478;-1.918;2023-08-06T10:00:47;0.98;;;0.50;;
63606;SDS011;71992;52.478;-1.918;2023-08-06T10:03:18;1.25;;;0.60;;
63606;SDS011;71992;52.478;-1.918;2023-08-06T10:05:50;1.95;;;0.70;;
63606;SDS011;71992;52.478;-1.918;2023-08-06T10:08:22;1.33;;;0.60;;
63606;SDS011;71992;52.478;-1.918;2023-08-06T10:10:53;2.22;;;0.50;;
63606;SDS011;71992;52.478;-1.918;2023-08-06T10:13:25;1.67;;;0.50;;
63606;SDS011;71992;52.478;-1.918;2023-08-06T10:15:58;0.43;;;0.40;;
63606;SDS011;71992;52.478;-1.918;2023-08-06T10:18:29;1.42;;;0.40;;
63606;SDS011;71992;52.478;-1.918;2023-08-06T10:21:01;0.55;;;0.32;;
63606;SDS011;71992;52.478;-1.918;2023-08-06T10:23:35;1.23;;;0.40;;
63606;SDS011;71992;52.478;-1.918;2023-08-06T10:26:07;0.75;;;0.47;;
63606;SDS011;71992;52.478;-1.918;2023-08-06T10:28:38;0.93;;;0.50;;
63606;SDS011;71992;52.478;-1.918;2023-08-06T10:31:12;1.15;;;0.80;;
63606;SDS011;71992;52.478;-1.918;2023-08-06T10:33:43;0.40;;;0.40;;
63606;SDS011;71992;52.478;-1.918;2023-08-06T10:36:15;1.50;;;0.70;;
63606;SDS011;71992;52.478;-1.918;2023-08-06T10:38:46;2.30;;;0.70;;
63606;SDS011;71992;52.478;-1.918;2023-08-06T10:41:22;0.80;;;0.60;;
63606;SDS011;71992;52.478;-1.918;2023-08-06T10:44:05;0.90;;;0.50;;
63606;SDS011;71992;52.478;-1.918;2023-08-06T10:46:40;0.52;;;0.50;;
63606;SDS011;71992;52.478;-1.918;2023-08-06T10:49:10;1.95;;;0.60;;
63606;SDS011;71992;52.478;-1.918;2023-08-06T10:51:44;1.70;;;0.50;;
63606;SDS011;71992;52.478;-1.918;2023-08-06T10:54:15;0.73;;;0.40;;
63606;SDS011;71992;52.478;-1.918;2023-08-06T10:56:46;1.58;;;0.47;;
63606;SDS011;71992;52.478;-1.918;2023-08-06T10:59:17;0.47;;;0.43;;
63606;SDS011;71992;52.478;-1.918;2023-08-06T11:01:50;1.00;;;0.50;;
63606;SDS011;71992;52.478;-1.918;2023-08-06T11:04:22;1.13;;;0.57;;
63606;SDS011;71992;52.478;-1.918;2023-08-06T11:06:55;1.38;;;0.57;;
63606;SDS011;71992;52.478;-1.918;2023-08-06T11:09:25;0.90;;;0.50;;
63606;SDS011;71992;52.478;-1.918;2023-08-06T11:11:56;1.35;;;0.73;;
63606;SDS011;71992;52.478;-1.918;2023-08-06T11:14:30;1.10;;;0.43;;
63606;SDS011;71992;52.478;-1.918;2023-08-06T11:17:03;2.03;;;0.55;;
63606;SDS011;71992;52.478;-1.918;2023-08-06T11:19:35;0.98;;;0.47;;
63606;SDS011;71992;52.478;-1.918;2023-08-06T11:22:06;0.85;;;0.57;;
63606;SDS011;71992;52.478;-1.918;2023-08-06T11:24:37;0.68;;;0.50;;
63606;SDS011;71992;52.478;-1.918;2023-08-06T11:27:11;0.93;;;0.52;;
63606;SDS011;71992;52.478;-1.918;2023-08-06T11:29:43;1.48;;;0.70;;
63606;SDS011;71992;52.478;-1.918;2023-08-06T11:32:17;0.73;;;0.60;;
63606;SDS011;71992;52.478;-1.918;2023-08-06T11:34:48;0.52;;;0.40;;
63606;SDS011;71992;52.478;-1.918;2023-08-06T11:37:20;1.83;;;0.40;;
63606;SDS011;71992;52.478;-1.918;2023-08-06T11:39:53;1.08;;;0.52;;
63606;SDS011;71992;52.478;-1.918;2023-08-06T11:42:30;0.98;;;0.40;;
63606;SDS011;71992;52.478;-1.918;2023-08-06T11:45:03;1.45;;;0.45;;
63606;SDS011;71992;52.478;-1.918;2023-08-06T11:47:40;0.82;;;0.57;;
63606;SDS011;71992;52.478;-1.918;2023-08-06T11:50:21;0.85;;;0.50;;
63606;SDS011;71992;52.478;-1.918;2023-08-06T11:52:53;1.10;;;0.47;;
63606;SDS011;71992;52.478;-1.918;2023-08-06T11:55:27;1.10;;;0.40;;
63606;SDS011;71992;52.478;-1.918;2023-08-06T11:57:59;1.38;;;0.50;;
63606;SDS011;71992;52.478;-1.918;2023-08-06T12:00:33;0.80;;;0.40;;
63606;SDS011;71992;52.478;-1.918;2023-08-06T12:03:07;1.17;;;0.52;;
63606;SDS011;71992;52.478;-1.918;2023-08-06T12:05:38;2.30;;;0.80;;
63606;SDS011;71992;52.478;-1.918;2023-08-06T12:08:09;0.98;;;0.68;;
63606;SDS011;71992;52.478;-1.918;2023-08-06T12:10:40;1.95;;;0.55;;
63606;SDS011;71992;52.478;-1.918;2023-08-06T12:13:11;0.90;;;0.52;;
63606;SDS011;71992;52.478;-1.918;2023-08-06T12:15:41;0.82;;;0.50;;
63606;SDS011;71992;52.478;-1.918;2023-08-06T12:18:15;1.38;;;0.60;;
63606;SDS011;71992;52.478;-1.918;2023-08-06T12:20:46;1.10;;;0.63;;
63606;SDS011;71992;52.478;-1.918;2023-08-06T12:23:17;2.53;;;0.77;;
63606;SDS011;71992;52.478;-1.918;2023-08-06T12:25:48;1.77;;;0.55;;
63606;SDS011;71992;52.478;-1.918;2023-08-06T12:28:19;1.08;;;0.57;;
63606;SDS011;71992;52.478;-1.918;2023-08-06T12:30:50;1.27;;;0.70;;
63606;SDS011;71992;52.478;-1.918;2023-08-06T12:33:25;0.50;;;0.40;;
63606;SDS011;71992;52.478;-1.918;2023-08-06T12:35:55;1.05;;;0.30;;
63606;SDS011;71992;52.478;-1.918;2023-08-06T12:38:26;0.40;;;0.30;;
63606;SDS011;71992;52.478;-1.918;2023-08-06T12:41:01;0.55;;;0.40;;
63606;SDS011;71992;52.478;-1.918;2023-08-06T12:43:32;0.65;;;0.40;;
63606;SDS011;71992;52.478;-1.918;2023-08-06T12:46:03;0.60;;;0.43;;
63606;SDS011;71992;52.478;-1.918;2023-08-06T12:48:37;0.70;;;0.40;;
63606;SDS011;71992;52.478;-1.918;2023-08-06T12:51:08;0.90;;;0.50;;
63606;SDS011;71992;52.478;-1.918;2023-08-06T12:53:39;0.82;;;0.40;;
63606;SDS011;71992;52.478;-1.918;2023-08-06T12:56:09;0.65;;;0.30;;
63606;SDS011;71992;52.478;-1.918;2023-08-06T12:58:40;1.85;;;0.60;;
63606;SDS011;71992;52.478;-1.918;2023-08-06T13:01:12;1.02;;;0.47;;
63606;SDS011;71992;52.478;-1.918;2023-08-06T13:03:45;0.40;;;0.40;;
63606;SDS011;71992;52.478;-1.918;2023-08-06T13:06:16;0.93;;;0.55;;
63606;SDS011;71992;52.478;-1.918;2023-08-06T13:08:47;2.30;;;0.70;;
63606;SDS011;71992;52.478;-1.918;2023-08-06T13:11:18;0.95;;;0.50;;
63606;SDS011;71992;52.478;-1.918;2023-08-06T13:13:49;2.58;;;0.50;;
63606;SDS011;71992;52.478;-1.918;2023-08-06T13:16:20;2.05;;;0.80;;
63606;SDS011;71992;52.478;-1.918;2023-08-06T13:18:53;0.90;;;0.60;;
63606;SDS011;71992;52.478;-1.918;2023-08-06T13:21:24;1.50;;;0.60;;
63606;SDS011;71992;52.478;-1.918;2023-08-06T13:23:55;1.05;;;0.60;;
63606;SDS011;71992;52.478;-1.918;2023-08-06T13:26:26;1.10;;;0.70;;
63606;SDS011;71992;52.478;-1.918;2023-08-06T13:28:58;1.00;;;0.65;;
63606;SDS011;71992;52.478;-1.918;2023-08-06T13:31:30;1.33;;;0.55;;
63606;SDS011;71992;52.478;-1.918;2023-08-06T13:34:03;1.42;;;0.60;;
63606;SDS011;71992;52.478;-1.918;2023-08-06T13:36:34;1.65;;;0.50;;
63606;SDS011;71992;52.478;-1.918;2023-08-06T13:39:05;0.70;;;0.52;;
63606;SDS011;71992;52.478;-1.918;2023-08-06T13:41:37;1.15;;;0.70;;
63606;SDS011;71992;52.478;-1.918;2023-08-06T13:44:08;0.95;;;0.50;;
63606;SDS011;71992;52.478;-1.918;2023-08-06T13:46:41;1.08;;;0.80;;
63606;SDS011;71992;52.478;-1.918;2023-08-06T13:49:15;2.17;;;0.63;;
63606;SDS011;71992;52.478;-1.918;2023-08-06T13:51:46;1.00;;;0.50;;
63606;SDS011;71992;52.478;-1.918;2023-08-06T13:54:17;1.48;;;0.60;;
63606;SDS011;71992;52.478;-1.918;2023-08-06T13:56:48;0.60;;;0.40;;
63606;SDS011;71992;52.478;-1.918;2023-08-06T13:59:20;0.70;;;0.52;;
63606;SDS011;71992;52.478;-1.918;2023-08-06T14:01:51;0.93;;;0.40;;
63606;SDS011;71992;52.478;-1.918;2023-08-06T14:04:26;1.17;;;0.55;;
63606;SDS011;71992;52.478;-1.918;2023-08-06T14:06:57;1.83;;;0.60;;
63606;SDS011;71992;52.478;-1.918;2023-08-06T14:09:28;0.93;;;0.63;;
63606;SDS011;71992;52.478;-1.918;2023-08-06T14:11:59;1.70;;;0.50;;
63606;SDS011;71992;52.478;-1.918;2023-08-06T14:14:30;0.45;;;0.35;;
63606;SDS011;71992;52.478;-1.918;2023-08-06T14:17:01;0.90;;;0.40;;
63606;SDS011;71992;52.478;-1.918;2023-08-06T14:19:35;0.75;;;0.50;;
63606;SDS011;71992;52.478;-1.918;2023-08-06T14:22:06;1.17;;;0.57;;
63606;SDS011;71992;52.478;-1.918;2023-08-06T14:24:39;1.00;;;0.63;;
63606;SDS011;71992;52.478;-1.918;2023-08-06T14:27:10;0.88;;;0.60;;
63606;SDS011;71992;52.478;-1.918;2023-08-06T14:29:41;0.60;;;0.47;;
63606;SDS011;71992;52.478;-1.918;2023-08-06T14:32:12;0.50;;;0.40;;
63606;SDS011;71992;52.478;-1.918;2023-08-06T14:34:48;1.75;;;0.68;;
63606;SDS011;71992;52.478;-1.918;2023-08-06T14:37:19;0.60;;;0.40;;
63606;SDS011;71992;52.478;-1.918;2023-08-06T14:39:50;1.23;;;0.40;;
63606;SDS011;71992;52.478;-1.918;2023-08-06T14:42:21;0.43;;;0.43;;
63606;SDS011;71992;52.478;-1.918;2023-08-06T14:44:52;0.85;;;0.52;;
63606;SDS011;71992;52.478;-1.918;2023-08-06T14:47:23;0.90;;;0.55;;
63606;SDS011;71992;52.478;-1.918;2023-08-06T14:49:56;0.77;;;0.60;;
63606;SDS011;71992;52.478;-1.918;2023-08-06T14:52:27;1.00;;;0.45;;
63606;SDS011;71992;52.478;-1.918;2023-08-06T14:54:59;1.23;;;0.60;;
63606;SDS011;71992;52.478;-1.918;2023-08-06T14:57:31;1.77;;;0.60;;
63606;SDS011;71992;52.478;-1.918;2023-08-06T15:00:02;1.20;;;0.55;;
63606;SDS011;71992;52.478;-1.918;2023-08-06T15:02:37;0.98;;;0.40;;
63606;SDS011;71992;52.478;-1.918;2023-08-06T15:05:10;2.80;;;0.60;;